Zimmer, Louisiana
Current Conditions -  °F | °C
As of 7:15 AM on Sunday 23 Nov 2014 (Local Time) from KESF Reporting Station
Light Rain Light Rain  
Wind Chill: 64°   Ceiling: 1000
Heat Index: 64°   Visibility: 10mi
Dew Point: 62°   Wind: 20mph
Humidity: 93%   Direction: 110°ESE
Pressure: 29.5"   Gusts: 29mph
Location:  31.0386°N, 91.9871°W
Report Text: KESF 231315Z AUTO 11017G25KT 10SM -RA BKN010 BKN014 18/17 A2950 RMK AO2 CIG 006V012 PRESFR P0002 T01780167
Loading
Personal Weather Stations






























Interactive Weather Map New forecast layout! Learn more

10-Day Weather Forecast

Advertisements
Track Severe Weather on mobile